createdAt,value
2019-03-09T00:00:47.789Z,99.90
2019-03-09T00:03:19.657Z,99.90
2019-03-09T00:05:51.692Z,99.90
2019-03-09T00:08:23.472Z,99.90
2019-03-09T00:10:55.825Z,99.90
2019-03-09T00:13:28.030Z,99.90
2019-03-09T00:16:00.175Z,99.90
2019-03-09T00:18:31.979Z,99.90
2019-03-09T00:21:06.307Z,99.90
2019-03-09T00:24:01.825Z,99.90
2019-03-09T00:26:49.165Z,99.90
2019-03-09T00:29:43.940Z,99.90
2019-03-09T00:32:21.297Z,99.90
2019-03-09T00:34:54.088Z,99.90
2019-03-09T00:37:27.834Z,99.90
2019-03-09T00:40:03.086Z,99.90
2019-03-09T00:42:37.742Z,99.90
2019-03-09T00:45:11.137Z,99.90
2019-03-09T00:47:46.302Z,99.90
2019-03-09T00:50:23.009Z,99.90
2019-03-09T00:52:56.723Z,99.90
2019-03-09T00:55:32.667Z,99.90
2019-03-09T00:58:06.639Z,99.90
2019-03-09T01:00:40.822Z,99.90
2019-03-09T01:03:13.951Z,99.90
2019-03-09T01:05:48.605Z,99.90
2019-03-09T01:08:22.034Z,99.90
2019-03-09T01:10:55.553Z,99.90
2019-03-09T01:13:28.938Z,99.90
2019-03-09T01:16:02.630Z,99.90
2019-03-09T01:18:35.432Z,99.90
2019-03-09T01:21:08.429Z,99.90
2019-03-09T01:23:43.169Z,99.90
2019-03-09T01:26:19.266Z,99.90
2019-03-09T01:28:52.814Z,99.90
2019-03-09T01:31:25.511Z,99.90
2019-03-09T01:33:59.613Z,99.90
2019-03-09T01:36:35.364Z,99.90
2019-03-09T01:39:09.451Z,99.90
2019-03-09T01:41:43.956Z,99.90
2019-03-09T01:44:18.324Z,99.90
2019-03-09T01:46:51.760Z,99.90
2019-03-09T01:49:28.262Z,99.90
2019-03-09T01:52:03.456Z,99.90
2019-03-09T01:54:38.733Z,99.90
2019-03-09T01:57:13.618Z,99.90
2019-03-09T01:59:47.535Z,99.90
2019-03-09T02:02:23.416Z,99.90
2019-03-09T02:04:55.815Z,99.90
2019-03-09T02:07:29.420Z,99.90
2019-03-09T02:10:02.085Z,99.90
2019-03-09T02:12:35.346Z,99.90
2019-03-09T02:15:07.394Z,99.90
2019-03-09T02:17:39.173Z,99.90
2019-03-09T02:20:11.129Z,99.90
2019-03-09T02:22:42.844Z,99.90
2019-03-09T02:25:14.760Z,99.90
2019-03-09T02:27:46.901Z,99.90
2019-03-09T02:30:18.496Z,99.90
2019-03-09T02:32:50.352Z,99.90
2019-03-09T02:35:21.799Z,99.90
2019-03-09T02:37:53.398Z,99.90
2019-03-09T02:40:26.047Z,99.90
2019-03-09T02:42:57.674Z,99.90
2019-03-09T02:45:30.815Z,99.90
2019-03-09T02:48:02.438Z,99.90
2019-03-09T02:50:34.070Z,99.90
2019-03-09T02:53:05.687Z,99.90
2019-03-09T02:55:37.555Z,99.90
2019-03-09T02:58:09.419Z,99.90
2019-03-09T03:00:46.438Z,99.90
2019-03-09T03:03:18.027Z,99.90
2019-03-09T03:05:49.624Z,99.90
2019-03-09T03:08:21.165Z,99.90
2019-03-09T03:10:52.871Z,99.90
2019-03-09T03:13:24.559Z,99.90
2019-03-09T03:15:56.134Z,99.90
2019-03-09T03:18:27.717Z,99.90
2019-03-09T03:20:59.447Z,99.90
2019-03-09T03:23:31.048Z,99.90
2019-03-09T03:26:02.820Z,99.90
2019-03-09T03:28:34.643Z,99.90
2019-03-09T03:31:06.374Z,99.90
2019-03-09T03:33:37.966Z,99.90
2019-03-09T03:36:09.833Z,99.90
2019-03-09T03:38:41.583Z,99.90
2019-03-09T03:41:13.245Z,99.90
2019-03-09T03:43:44.791Z,99.90
2019-03-09T03:46:16.563Z,99.90
2019-03-09T03:48:48.181Z,99.90
2019-03-09T03:51:20.052Z,99.90
2019-03-09T03:53:51.783Z,99.90
2019-03-09T03:56:24.595Z,99.90
2019-03-09T03:58:56.372Z,99.90
2019-03-09T04:01:28.106Z,99.90
2019-03-09T04:03:59.804Z,99.90
2019-03-09T04:06:32.191Z,99.90
2019-03-09T04:09:04.981Z,99.90
2019-03-09T04:11:37.094Z,99.90
2019-03-09T04:14:08.667Z,99.90
2019-03-09T04:16:40.215Z,99.90
2019-03-09T04:19:11.840Z,99.90
2019-03-09T04:21:43.937Z,99.90
2019-03-09T04:24:15.536Z,99.90
2019-03-09T04:26:47.168Z,99.90
2019-03-09T04:29:18.766Z,99.90
2019-03-09T04:31:50.503Z,99.90
2019-03-09T04:34:22.104Z,99.90
2019-03-09T04:37:00.869Z,99.90
2019-03-09T04:39:32.607Z,99.90
2019-03-09T04:42:04.057Z,99.90
2019-03-09T04:44:35.781Z,99.90
2019-03-09T04:47:07.430Z,99.90
2019-03-09T04:49:38.831Z,99.90
2019-03-09T04:52:10.491Z,99.90
2019-03-09T04:54:42.121Z,99.90
2019-03-09T04:57:13.635Z,99.90
2019-03-09T04:59:45.255Z,99.90
2019-03-09T05:02:16.802Z,99.90
2019-03-09T05:04:51.275Z,99.90
2019-03-09T05:07:42.580Z,99.90
2019-03-09T05:10:22.423Z,99.90
2019-03-09T05:12:58.399Z,99.90
2019-03-09T05:15:30.004Z,99.90
2019-03-09T05:18:01.694Z,99.90
2019-03-09T05:20:33.353Z,99.90
2019-03-09T05:23:04.849Z,99.90
2019-03-09T05:25:36.460Z,99.90
2019-03-09T05:28:08.002Z,99.90
2019-03-09T05:30:44.254Z,99.90
2019-03-09T05:33:15.851Z,99.90
2019-03-09T05:35:47.977Z,99.90
2019-03-09T05:38:20.060Z,99.90
2019-03-09T05:40:51.691Z,99.90
2019-03-09T05:43:23.367Z,99.90
2019-03-09T05:45:54.790Z,99.90
2019-03-09T05:48:26.451Z,99.90
2019-03-09T05:50:58.075Z,99.90
2019-03-09T05:53:29.744Z,99.90
2019-03-09T05:56:01.254Z,99.90
2019-03-09T05:58:33.122Z,99.90
2019-03-09T06:01:04.956Z,99.90
2019-03-09T06:03:36.901Z,99.90
2019-03-09T06:06:17.775Z,99.90
2019-03-09T06:08:51.098Z,99.90
2019-03-09T06:11:23.025Z,99.90
2019-03-09T06:13:54.584Z,99.90
2019-03-09T06:16:26.177Z,99.90
2019-03-09T06:18:57.731Z,99.90
2019-03-09T06:21:29.215Z,99.90
2019-03-09T06:24:01.276Z,99.90
2019-03-09T06:26:32.845Z,99.90
2019-03-09T06:29:04.711Z,99.90
2019-03-09T06:31:36.401Z,99.90
2019-03-09T06:34:08.038Z,99.90
2019-03-09T06:37:02.263Z,99.90
2019-03-09T06:39:38.652Z,99.90
2019-03-09T06:42:50.145Z,99.90
2019-03-09T06:45:22.673Z,99.90
2019-03-09T06:47:54.265Z,99.90
2019-03-09T06:50:26.195Z,99.90
2019-03-09T06:52:57.933Z,99.90
2019-03-09T06:55:29.686Z,99.90
2019-03-09T06:58:01.776Z,99.90
2019-03-09T07:00:42.779Z,99.90
2019-03-09T07:03:14.897Z,99.90
2019-03-09T07:05:46.662Z,99.90
2019-03-09T07:08:18.297Z,99.90
2019-03-09T07:10:49.878Z,99.90
2019-03-09T07:13:21.409Z,99.90
2019-03-09T07:15:53.072Z,99.90
2019-03-09T07:18:44.974Z,99.90
2019-03-09T07:21:16.941Z,99.90
2019-03-09T07:23:48.643Z,99.90
2019-03-09T07:26:20.406Z,99.90
2019-03-09T07:28:52.036Z,99.90
2019-03-09T07:31:24.321Z,99.90
2019-03-09T07:34:24.887Z,99.90
2019-03-09T07:36:56.714Z,99.90
2019-03-09T07:39:28.318Z,99.90
2019-03-09T07:41:59.987Z,99.90
2019-03-09T07:44:31.541Z,99.90
2019-03-09T07:47:03.291Z,99.90
2019-03-09T07:49:35.180Z,99.90
2019-03-09T07:52:38.448Z,99.90
2019-03-09T07:55:13.568Z,99.90
2019-03-09T07:57:45.693Z,99.90
2019-03-09T08:00:19.538Z,99.90
2019-03-09T08:02:51.403Z,99.90
2019-03-09T08:05:22.918Z,99.90
2019-03-09T08:07:55.257Z,99.90
2019-03-09T08:10:27.023Z,99.90
2019-03-09T08:12:58.894Z,99.90
2019-03-09T08:15:31.049Z,99.90
2019-03-09T08:18:02.662Z,99.90
2019-03-09T08:20:34.247Z,99.90
2019-03-09T08:23:06.004Z,99.90
2019-03-09T08:25:38.456Z,99.90
2019-03-09T08:28:10.432Z,99.70
2019-03-09T08:30:42.384Z,97.20
2019-03-09T08:33:14.321Z,98.20
2019-03-09T08:35:46.000Z,97.60
2019-03-09T08:38:17.562Z,97.20
2019-03-09T08:40:49.515Z,97.50
2019-03-09T08:43:21.195Z,97.70
2019-03-09T08:45:53.039Z,96.80
2019-03-09T08:48:25.325Z,95.60
2019-03-09T08:50:57.757Z,94.70
2019-03-09T08:53:31.283Z,93.00
2019-03-09T08:56:03.240Z,92.10
2019-03-09T08:58:35.133Z,90.30
2019-03-09T09:01:08.963Z,89.40
2019-03-09T09:03:40.938Z,86.30
2019-03-09T09:06:12.780Z,86.00
2019-03-09T09:08:44.548Z,83.20
2019-03-09T09:11:17.711Z,83.90
2019-03-09T09:13:50.155Z,81.10
2019-03-09T09:16:21.806Z,83.00
2019-03-09T09:18:53.518Z,84.00
2019-03-09T09:21:25.195Z,82.90
2019-03-09T09:23:56.809Z,79.20
2019-03-09T09:26:28.672Z,73.30
2019-03-09T09:29:00.506Z,75.20
2019-03-09T09:31:32.209Z,76.50
2019-03-09T09:34:04.365Z,78.30
2019-03-09T09:36:37.847Z,73.40
2019-03-09T09:39:10.683Z,71.60
2019-03-09T09:41:42.630Z,70.60
2019-03-09T09:44:14.381Z,69.70
2019-03-09T09:46:46.022Z,67.60
2019-03-09T09:49:18.026Z,67.70
2019-03-09T09:51:49.938Z,67.60
2019-03-09T09:54:21.523Z,71.00
2019-03-09T09:56:54.565Z,71.30
2019-03-09T09:59:26.336Z,71.50
2019-03-09T10:01:58.220Z,70.20
2019-03-09T10:04:30.020Z,70.00
2019-03-09T10:07:01.846Z,69.00
2019-03-09T10:09:33.914Z,71.50
2019-03-09T10:12:05.982Z,72.60
2019-03-09T10:14:37.581Z,70.90
2019-03-09T10:17:09.542Z,72.70
2019-03-09T10:19:41.190Z,72.60
2019-03-09T10:22:14.480Z,69.80
2019-03-09T10:24:46.552Z,69.70
2019-03-09T10:27:18.623Z,67.30
2019-03-09T10:29:50.142Z,67.60
2019-03-09T10:32:22.085Z,66.90
2019-03-09T10:34:53.939Z,66.60
2019-03-09T10:37:25.923Z,64.40
2019-03-09T10:39:58.009Z,63.60
2019-03-09T10:42:29.726Z,64.60
2019-03-09T10:45:03.420Z,62.60
2019-03-09T10:47:35.034Z,62.60
2019-03-09T10:50:08.798Z,64.20
2019-03-09T10:52:40.510Z,62.30
2019-03-09T10:55:16.310Z,62.60
2019-03-09T10:57:48.166Z,61.30
2019-03-09T11:00:31.139Z,59.60
2019-03-09T11:03:03.009Z,58.70
2019-03-09T11:05:34.973Z,57.70
2019-03-09T11:08:07.116Z,58.80
2019-03-09T11:10:38.883Z,59.30
2019-03-09T11:13:11.521Z,60.10
2019-03-09T11:15:43.991Z,63.10
2019-03-09T11:18:15.691Z,64.50
2019-03-09T11:20:48.309Z,65.30
2019-03-09T11:23:20.620Z,64.70
2019-03-09T11:25:52.556Z,63.60
2019-03-09T11:28:24.497Z,62.60
2019-03-09T11:30:56.229Z,61.90
2019-03-09T11:33:28.086Z,62.00
2019-03-09T11:35:59.990Z,63.90
2019-03-09T11:38:31.700Z,64.40
2019-03-09T11:41:03.534Z,65.80
2019-03-09T11:43:35.274Z,65.80
2019-03-09T11:46:07.693Z,64.90
2019-03-09T11:48:42.772Z,64.70
2019-03-09T11:51:14.774Z,65.90
2019-03-09T11:53:46.551Z,63.70
2019-03-09T11:56:19.613Z,61.80
2019-03-09T11:58:51.219Z,60.20
2019-03-09T12:01:23.547Z,59.50
2019-03-09T12:03:55.860Z,60.50
2019-03-09T12:06:28.477Z,60.50
2019-03-09T12:09:00.938Z,61.10
2019-03-09T12:11:32.605Z,61.90
2019-03-09T12:14:04.596Z,61.80
2019-03-09T12:16:36.238Z,61.40
2019-03-09T12:19:08.183Z,61.00
2019-03-09T12:21:40.034Z,61.20
2019-03-09T12:24:16.394Z,61.80
2019-03-09T12:26:48.863Z,62.00
2019-03-09T12:29:20.657Z,62.40
2019-03-09T12:31:52.392Z,63.30
2019-03-09T12:34:24.378Z,63.00
2019-03-09T12:36:57.219Z,62.60
2019-03-09T12:39:28.943Z,63.40
2019-03-09T12:42:00.759Z,61.90
2019-03-09T12:44:33.583Z,62.10
2019-03-09T12:47:05.697Z,62.00
2019-03-09T12:49:37.688Z,61.30
2019-03-09T12:52:10.274Z,61.30
2019-03-09T12:54:42.179Z,61.40
2019-03-09T12:57:13.822Z,61.80
2019-03-09T12:59:45.707Z,61.10
2019-03-09T13:02:18.051Z,61.50
2019-03-09T13:04:51.169Z,60.70
2019-03-09T13:07:24.652Z,60.00
2019-03-09T13:09:56.853Z,59.40
2019-03-09T13:12:28.559Z,59.20
2019-03-09T13:15:00.412Z,59.40
2019-03-09T13:17:35.071Z,59.20
2019-03-09T13:20:07.133Z,59.20
2019-03-09T13:22:39.070Z,59.20
2019-03-09T13:25:11.547Z,59.20
2019-03-09T13:27:43.588Z,58.70
2019-03-09T13:30:18.455Z,57.20
2019-03-09T13:32:50.420Z,57.10
2019-03-09T13:35:22.452Z,56.60
2019-03-09T13:37:54.427Z,56.30
2019-03-09T13:40:26.576Z,55.90
2019-03-09T13:42:58.619Z,55.80
2019-03-09T13:45:30.928Z,54.00
2019-03-09T13:48:02.620Z,55.00
2019-03-09T13:50:34.943Z,53.30
2019-03-09T13:53:09.251Z,53.90
2019-03-09T13:55:41.208Z,54.90
2019-03-09T13:58:14.935Z,55.20
2019-03-09T14:00:47.419Z,54.50
2019-03-09T14:03:20.122Z,54.40
2019-03-09T14:05:52.341Z,53.30
2019-03-09T14:08:25.214Z,52.20
2019-03-09T14:10:58.008Z,51.90
2019-03-09T14:13:30.142Z,53.10
2019-03-09T14:16:02.046Z,53.50
2019-03-09T14:18:34.642Z,54.20
2019-03-09T14:21:06.724Z,55.00
2019-03-09T14:23:39.031Z,54.70
2019-03-09T14:26:12.008Z,54.30
2019-03-09T14:28:43.996Z,53.70
2019-03-09T14:31:17.821Z,53.40
2019-03-09T14:33:50.747Z,54.10
2019-03-09T14:36:23.696Z,54.40
2019-03-09T14:38:57.650Z,53.40
2019-03-09T14:41:30.434Z,54.90
2019-03-09T14:44:02.092Z,53.50
2019-03-09T14:46:34.038Z,54.10
2019-03-09T14:49:06.822Z,55.20
2019-03-09T14:51:38.916Z,55.60
2019-03-09T14:54:11.545Z,56.00
2019-03-09T14:56:43.421Z,55.40
2019-03-09T14:59:16.346Z,55.20
2019-03-09T15:01:48.899Z,55.40
2019-03-09T15:04:21.044Z,56.10
2019-03-09T15:06:53.051Z,56.30
2019-03-09T15:09:25.322Z,56.00
2019-03-09T15:11:57.713Z,54.40
2019-03-09T15:14:29.429Z,55.70
2019-03-09T15:17:02.407Z,55.10
2019-03-09T15:19:35.998Z,57.40
2019-03-09T15:22:07.990Z,56.10
2019-03-09T15:24:40.178Z,56.10
2019-03-09T15:27:12.221Z,55.30
2019-03-09T15:29:44.576Z,55.40
2019-03-09T15:32:17.416Z,56.60
2019-03-09T15:34:50.396Z,54.90
2019-03-09T15:37:22.467Z,56.10
2019-03-09T15:39:54.346Z,56.20
2019-03-09T15:42:28.031Z,57.00
2019-03-09T15:45:00.113Z,57.10
2019-03-09T15:47:32.990Z,56.60
2019-03-09T15:50:05.139Z,56.40
2019-03-09T15:52:37.014Z,55.10
2019-03-09T15:55:09.997Z,54.20
2019-03-09T15:57:42.137Z,55.40
2019-03-09T16:00:20.039Z,55.90
2019-03-09T16:02:52.597Z,56.40
2019-03-09T16:05:27.222Z,57.00
2019-03-09T16:08:01.163Z,57.80
2019-03-09T16:10:35.103Z,57.30
2019-03-09T16:13:09.425Z,57.40
2019-03-09T16:15:46.103Z,56.80
2019-03-09T16:18:19.771Z,56.40
2019-03-09T16:20:52.905Z,57.50
2019-03-09T16:23:26.889Z,57.00
2019-03-09T16:26:00.868Z,57.70
2019-03-09T16:28:35.236Z,58.10
2019-03-09T16:31:08.831Z,58.40
2019-03-09T16:33:42.811Z,58.30
2019-03-09T16:36:16.881Z,59.10
2019-03-09T16:38:50.375Z,59.70
2019-03-09T16:41:23.381Z,59.70
2019-03-09T16:43:56.690Z,60.10
2019-03-09T16:46:29.841Z,60.40
2019-03-09T16:49:03.465Z,61.20
2019-03-09T16:51:36.771Z,61.90
2019-03-09T16:54:10.465Z,62.30
2019-03-09T16:56:43.509Z,62.60
2019-03-09T16:59:16.692Z,63.00
2019-03-09T17:01:49.888Z,64.10
2019-03-09T17:04:23.124Z,64.10
2019-03-09T17:06:55.621Z,64.50
2019-03-09T17:09:29.084Z,65.60
2019-03-09T17:12:02.812Z,67.50
2019-03-09T17:14:36.441Z,67.50
2019-03-09T17:17:10.583Z,68.60
2019-03-09T17:19:45.430Z,69.50
2019-03-09T17:22:19.103Z,70.70
2019-03-09T17:24:52.438Z,72.50
2019-03-09T17:27:29.469Z,74.10
2019-03-09T17:30:03.271Z,73.80
2019-03-09T17:32:36.942Z,73.20
2019-03-09T17:35:10.610Z,73.40
2019-03-09T17:37:45.513Z,73.90
2019-03-09T17:40:20.186Z,75.00
2019-03-09T17:42:54.404Z,75.80
2019-03-09T17:45:28.528Z,77.40
2019-03-09T17:48:02.290Z,78.70
2019-03-09T17:50:36.244Z,79.70
2019-03-09T17:53:10.467Z,80.20
2019-03-09T17:55:44.419Z,82.20
2019-03-09T17:58:18.373Z,83.80
2019-03-09T18:00:52.761Z,83.90
2019-03-09T18:03:26.015Z,85.20
2019-03-09T18:06:00.731Z,86.20
2019-03-09T18:08:33.640Z,87.60
2019-03-09T18:11:08.020Z,88.60
2019-03-09T18:13:40.586Z,89.30
2019-03-09T18:16:17.918Z,90.30
2019-03-09T18:18:51.397Z,90.70
2019-03-09T18:21:23.998Z,91.30
2019-03-09T18:23:55.833Z,91.80
2019-03-09T18:26:27.935Z,92.30
2019-03-09T18:29:00.440Z,92.70
2019-03-09T18:31:32.378Z,93.20
2019-03-09T18:34:05.625Z,93.80
2019-03-09T18:36:37.892Z,94.40
2019-03-09T18:39:10.814Z,94.80
2019-03-09T18:41:42.897Z,95.40
2019-03-09T18:44:15.236Z,95.70
2019-03-09T18:46:47.156Z,96.20
2019-03-09T18:49:19.077Z,96.70
2019-03-09T18:51:53.066Z,97.30
2019-03-09T18:54:25.849Z,97.90
2019-03-09T18:56:58.250Z,98.30
2019-03-09T18:59:30.219Z,98.90
2019-03-09T19:02:02.535Z,99.40
2019-03-09T19:04:35.852Z,99.90
2019-03-09T19:07:08.543Z,99.90
2019-03-09T19:09:40.706Z,99.90
2019-03-09T19:12:13.045Z,99.90
2019-03-09T19:14:45.748Z,99.90
2019-03-09T19:17:18.189Z,99.90
2019-03-09T19:19:50.870Z,99.90
2019-03-09T19:22:23.864Z,99.90
2019-03-09T19:24:56.713Z,99.90
2019-03-09T19:27:31.177Z,99.90
2019-03-09T19:30:03.637Z,99.90
2019-03-09T19:32:36.504Z,99.90
2019-03-09T19:35:09.189Z,99.90
2019-03-09T19:37:41.543Z,99.90
2019-03-09T19:40:16.220Z,99.90
2019-03-09T19:42:49.538Z,99.90
2019-03-09T19:45:22.892Z,99.90
2019-03-09T19:47:56.005Z,99.90
2019-03-09T19:50:28.538Z,99.90
2019-03-09T19:53:01.311Z,99.90
2019-03-09T19:55:34.372Z,99.90
2019-03-09T19:58:07.835Z,99.90
2019-03-09T20:00:41.080Z,99.90
2019-03-09T20:03:14.235Z,99.90
2019-03-09T20:05:47.849Z,99.90
2019-03-09T20:08:21.865Z,99.90
2019-03-09T20:10:55.539Z,99.90
2019-03-09T20:13:29.150Z,99.90
2019-03-09T20:16:02.873Z,99.90
2019-03-09T20:18:36.294Z,99.90
2019-03-09T20:21:09.705Z,99.90
2019-03-09T20:23:43.040Z,99.90
2019-03-09T20:26:16.214Z,99.90
2019-03-09T20:28:50.518Z,99.90
2019-03-09T20:31:23.374Z,99.90
2019-03-09T20:33:56.502Z,99.90
2019-03-09T20:36:29.571Z,99.90
2019-03-09T20:39:02.766Z,99.90
2019-03-09T20:41:35.497Z,99.90
2019-03-09T20:44:08.805Z,99.90
2019-03-09T20:46:42.340Z,99.90
2019-03-09T20:49:15.399Z,99.90
2019-03-09T20:51:48.768Z,99.90
2019-03-09T20:54:22.269Z,99.90
2019-03-09T20:56:56.420Z,99.90
2019-03-09T20:59:29.852Z,99.90
2019-03-09T21:02:02.964Z,99.90
2019-03-09T21:04:36.518Z,99.90
2019-03-09T21:07:09.867Z,99.90
2019-03-09T21:09:43.203Z,99.90
2019-03-09T21:12:16.117Z,99.90
2019-03-09T21:14:50.220Z,99.90
2019-03-09T21:17:23.215Z,99.90
2019-03-09T21:19:56.301Z,99.90
2019-03-09T21:22:29.662Z,99.90
2019-03-09T21:25:02.404Z,99.90
2019-03-09T21:27:34.916Z,99.90
2019-03-09T21:30:07.644Z,99.90
2019-03-09T21:32:39.397Z,99.90
2019-03-09T21:35:11.601Z,99.90
2019-03-09T21:37:43.415Z,99.90
2019-03-09T21:40:15.583Z,99.90
2019-03-09T21:42:47.455Z,99.90
2019-03-09T21:45:19.580Z,99.90
2019-03-09T21:47:51.663Z,99.90
2019-03-09T21:50:23.482Z,99.90
2019-03-09T21:52:55.355Z,99.90
2019-03-09T21:55:28.630Z,99.90
2019-03-09T21:58:00.512Z,99.90
2019-03-09T22:00:33.106Z,99.90
2019-03-09T22:03:04.990Z,99.90
2019-03-09T22:05:36.911Z,99.90
2019-03-09T22:08:08.792Z,99.90
2019-03-09T22:10:41.076Z,99.90
2019-03-09T22:13:12.997Z,99.90
2019-03-09T22:15:45.174Z,99.90
2019-03-09T22:18:17.260Z,99.90
2019-03-09T22:20:49.065Z,99.90
2019-03-09T22:23:21.293Z,99.90
2019-03-09T22:25:53.407Z,99.90
2019-03-09T22:28:25.754Z,99.90
2019-03-09T22:30:57.775Z,99.90
2019-03-09T22:33:31.033Z,99.90
2019-03-09T22:36:02.905Z,99.90
2019-03-09T22:38:35.533Z,99.90
2019-03-09T22:41:07.402Z,99.90
2019-03-09T22:43:39.237Z,99.90
2019-03-09T22:46:11.062Z,99.90
2019-03-09T22:48:44.359Z,99.90
2019-03-09T22:51:16.014Z,99.90
2019-03-09T22:53:48.159Z,99.90
2019-03-09T22:56:20.856Z,99.90
2019-03-09T22:58:52.626Z,99.90
2019-03-09T23:01:24.982Z,99.90
2019-03-09T23:03:58.040Z,99.90
2019-03-09T23:06:30.057Z,99.90
2019-03-09T23:09:05.834Z,99.90
2019-03-09T23:11:37.449Z,99.90
2019-03-09T23:14:09.339Z,99.90
2019-03-09T23:16:40.860Z,99.90
2019-03-09T23:19:12.586Z,99.90
2019-03-09T23:21:44.740Z,99.90
2019-03-09T23:24:16.549Z,99.90
2019-03-09T23:26:49.060Z,99.90
2019-03-09T23:29:20.819Z,99.90
2019-03-09T23:31:52.591Z,99.90
2019-03-09T23:34:24.384Z,99.90
2019-03-09T23:36:56.205Z,99.90
2019-03-09T23:39:28.081Z,99.90
2019-03-09T23:41:59.920Z,99.90
2019-03-09T23:44:31.687Z,99.90
2019-03-09T23:47:03.563Z,99.90
2019-03-09T23:49:35.330Z,99.90
2019-03-09T23:52:07.155Z,99.90
2019-03-09T23:54:41.592Z,99.90
2019-03-09T23:57:13.142Z,99.90
2019-03-09T23:59:44.874Z,99.90
